Time;durP1;ratioP1;P1;durP2;ratioP2;P2;SDS_P1;SDS_P2;PMS_P1;PMS_P2;Temp;Humidity;BMP_temperature;BMP_pressure;BME280_temperature;BME280_humidity;BME280_pressure;Samples;Min_cycle;Max_cycle;Signal;HPM_P1;HPM_P2
2023/05/16 00:02:39;;;;;;;16.55;13.60;;;14.40;99.90;;;;;;6251946;28;20048;-83
2023/05/16 00:05:41;;;;;;;17.13;15.32;;;14.40;99.90;;;;;;6259340;28;20492;-80
2023/05/16 00:08:42;;;;;;;19.85;16.55;;;14.40;99.90;;;;;;6257943;28;20080;-79
2023/05/16 00:11:47;;;;;;;20.10;16.23;;;14.40;99.90;;;;;;6256135;28;20057;-82
2023/05/16 00:14:49;;;;;;;20.08;16.65;;;14.40;99.90;;;;;;6258790;28;20037;-80
2023/05/16 00:17:50;;;;;;;18.50;16.55;;;14.40;99.90;;;;;;6257050;28;20533;-80
2023/05/16 00:20:53;;;;;;;17.50;15.90;;;14.30;99.90;;;;;;6259089;28;20044;-81
2023/05/16 00:23:55;;;;;;;17.30;15.55;;;14.30;99.90;;;;;;6257260;28;20636;-81
2023/05/16 00:26:58;;;;;;;17.67;15.77;;;14.30;99.90;;;;;;6257894;28;20041;-81
2023/05/16 00:30:00;;;;;;;17.83;15.98;;;14.30;99.90;;;;;;6258561;28;20121;-79
2023/05/16 00:33:02;;;;;;;20.85;15.18;;;14.20;99.90;;;;;;6260573;28;20123;-79
2023/05/16 00:36:04;;;;;;;16.88;15.07;;;14.30;99.90;;;;;;6263318;28;20056;-79
2023/05/16 00:39:06;;;;;;;18.33;15.70;;;14.30;99.90;;;;;;6259594;28;20044;-81
2023/05/16 00:42:09;;;;;;;19.15;15.95;;;14.20;99.90;;;;;;6258302;28;20052;-84
2023/05/16 00:45:11;;;;;;;17.10;14.88;;;14.20;99.90;;;;;;6258036;28;20396;-81
2023/05/16 00:48:15;;;;;;;18.80;15.93;;;14.20;99.90;;;;;;6260439;28;20055;-79
2023/05/16 00:51:17;;;;;;;17.48;15.77;;;14.10;99.90;;;;;;6261348;28;20037;-84
2023/05/16 00:54:21;;;;;;;20.27;15.93;;;14.00;99.90;;;;;;6259131;28;20049;-81
2023/05/16 00:57:25;;;;;;;18.48;16.67;;;13.90;99.90;;;;;;6264459;28;20048;-79
2023/05/16 01:00:27;;;;;;;19.73;17.63;;;13.90;99.90;;;;;;6263905;28;20049;-80
2023/05/16 01:03:29;;;;;;;20.27;17.48;;;13.90;99.90;;;;;;6271050;28;20041;-80
2023/05/16 01:06:31;;;;;;;18.63;16.55;;;13.80;99.90;;;;;;6271956;28;20045;-81
2023/05/16 01:09:33;;;;;;;21.23;19.10;;;13.80;99.90;;;;;;6266133;28;20045;-84
2023/05/16 01:12:43;;;;;;;20.33;16.80;;;13.80;99.90;;;;;;6266141;28;20045;-85
2023/05/16 01:15:50;;;;;;;18.70;15.50;;;13.90;99.90;;;;;;6261969;28;20484;-79
2023/05/16 01:19:01;;;;;;;20.02;17.25;;;13.90;99.90;;;;;;6264220;28;20399;-83
2023/05/16 01:22:06;;;;;;;20.67;18.60;;;13.90;99.90;;;;;;6265167;28;20046;-81
2023/05/16 01:25:21;;;;;;;21.55;19.25;;;13.90;99.90;;;;;;6266304;28;20045;-81
2023/05/16 01:28:25;;;;;;;18.10;16.02;;;13.90;99.90;;;;;;6263594;28;20077;-79
2023/05/16 01:31:27;;;;;;;17.23;15.48;;;13.90;99.90;;;;;;6264823;28;20507;-82
2023/05/16 01:34:29;;;;;;;21.38;17.98;;;13.90;99.90;;;;;;6262708;28;20045;-78
2023/05/16 01:37:38;;;;;;;19.60;17.50;;;13.90;99.90;;;;;;6263176;28;20045;-79
2023/05/16 01:40:48;;;;;;;21.00;18.33;;;13.90;99.90;;;;;;6259478;28;20048;-77
2023/05/16 01:43:56;;;;;;;19.38;17.38;;;13.90;99.90;;;;;;6261219;28;20304;-79
2023/05/16 01:47:02;;;;;;;18.60;16.77;;;13.90;99.90;;;;;;6263093;28;20049;-83
2023/05/16 01:50:10;;;;;;;19.92;17.48;;;13.90;99.90;;;;;;6258888;28;20275;-81
2023/05/16 01:53:25;;;;;;;20.30;18.20;;;13.90;99.90;;;;;;6265655;28;20041;-81
2023/05/16 01:56:28;;;;;;;19.33;17.25;;;13.90;99.90;;;;;;6263117;28;20049;-79
2023/05/16 01:59:33;;;;;;;20.02;18.00;;;13.90;99.90;;;;;;6264233;28;20384;-78
2023/05/16 02:02:34;;;;;;;22.83;18.40;;;13.90;99.90;;;;;;6265261;28;20049;-81
2023/05/16 02:05:36;;;;;;;20.20;18.05;;;14.00;99.90;;;;;;6260574;28;20053;-80
2023/05/16 02:08:38;;;;;;;24.40;19.63;;;14.00;99.90;;;;;;6264385;28;20482;-77
2023/05/16 02:11:39;;;;;;;29.70;24.83;;;14.00;99.90;;;;;;6273156;28;20048;-80
2023/05/16 02:14:42;;;;;;;32.22;24.05;;;14.00;99.90;;;;;;6264384;28;20049;-81
2023/05/16 02:17:44;;;;;;;30.88;23.63;;;14.10;99.90;;;;;;6259191;28;20048;-80
2023/05/16 02:20:46;;;;;;;29.02;22.27;;;14.10;99.90;;;;;;6262214;28;20502;-79
2023/05/16 02:23:48;;;;;;;28.10;22.95;;;14.10;99.90;;;;;;6261169;28;20407;-78
2023/05/16 02:26:50;;;;;;;28.95;23.60;;;14.20;99.90;;;;;;6262130;28;20488;-80
2023/05/16 02:29:53;;;;;;;28.85;24.75;;;14.20;99.90;;;;;;6261973;28;20385;-81
2023/05/16 02:32:54;;;;;;;31.38;25.05;;;14.20;99.90;;;;;;6259833;28;20483;-80
2023/05/16 02:35:56;;;;;;;30.00;24.63;;;14.30;99.90;;;;;;6262621;28;20045;-80
2023/05/16 02:38:58;;;;;;;34.78;25.42;;;14.20;99.90;;;;;;6265911;28;20048;-80
2023/05/16 02:41:59;;;;;;;30.80;23.80;;;14.20;99.90;;;;;;6261404;28;20040;-77
2023/05/16 02:45:02;;;;;;;29.60;23.02;;;14.20;99.90;;;;;;6263439;28;20049;-78
2023/05/16 02:48:04;;;;;;;30.15;23.17;;;14.20;99.90;;;;;;6261408;28;20045;-83
2023/05/16 02:51:06;;;;;;;31.67;23.20;;;14.20;99.90;;;;;;6259574;28;20057;-77
2023/05/16 02:54:08;;;;;;;31.85;23.70;;;14.10;99.90;;;;;;6262984;28;20041;-79
2023/05/16 02:57:10;;;;;;;30.40;22.30;;;14.10;99.90;;;;;;6260876;28;20116;-79
2023/05/16 03:00:15;;;;;;;29.27;23.70;;;14.10;99.90;;;;;;6258835;28;20052;-78
2023/05/16 03:03:18;;;;;;;39.25;24.50;;;14.20;99.90;;;;;;6262812;28;20065;-79
2023/05/16 03:06:20;;;;;;;38.65;25.85;;;14.20;99.90;;;;;;6260816;28;20045;-78
2023/05/16 03:09:22;;;;;;;29.58;23.00;;;14.10;99.90;;;;;;6261539;28;20049;-82
2023/05/16 03:12:24;;;;;;;29.60;23.48;;;14.10;99.90;;;;;;6274924;28;20049;-80
2023/05/16 03:15:27;;;;;;;29.90;23.52;;;14.10;99.90;;;;;;6274124;28;20052;-81
2023/05/16 03:18:28;;;;;;;32.28;23.27;;;14.10;99.90;;;;;;6273769;28;20051;-79
2023/05/16 03:21:30;;;;;;;29.23;22.25;;;14.10;99.90;;;;;;6273987;28;20052;-79
2023/05/16 03:24:32;;;;;;;33.28;25.15;;;14.00;99.90;;;;;;6274101;28;20115;-82
2023/05/16 03:27:33;;;;;;;37.45;24.60;;;14.10;99.90;;;;;;6273683;28;20505;-78
2023/05/16 03:30:36;;;;;;;33.47;26.05;;;14.10;99.90;;;;;;6272404;28;20518;-77
2023/05/16 03:33:38;;;;;;;37.97;25.75;;;14.10;99.90;;;;;;6250233;28;20036;-81
2023/05/16 03:36:41;;;;;;;37.83;25.98;;;14.10;99.90;;;;;;6252548;28;20403;-79
2023/05/16 03:39:43;;;;;;;39.33;25.63;;;14.10;99.90;;;;;;6254895;28;20052;-85
2023/05/16 03:42:44;;;;;;;32.50;25.38;;;14.10;99.90;;;;;;6254825;28;20049;-83
2023/05/16 03:45:47;;;;;;;35.22;27.73;;;14.10;99.90;;;;;;6252035;28;20052;-80
2023/05/16 03:48:49;;;;;;;38.50;26.30;;;14.10;99.90;;;;;;6255935;28;20053;-81
2023/05/16 03:51:51;;;;;;;33.33;25.00;;;14.10;99.90;;;;;;6257361;28;20041;-81
2023/05/16 03:54:52;;;;;;;33.15;25.27;;;14.10;99.90;;;;;;6251625;28;20045;-81
2023/05/16 03:57:54;;;;;;;33.63;22.83;;;14.10;99.90;;;;;;6252236;28;20045;-82
2023/05/16 04:00:57;;;;;;;31.80;23.63;;;14.10;99.90;;;;;;6253987;28;20048;-82
2023/05/16 04:03:59;;;;;;;28.23;23.25;;;14.10;99.90;;;;;;6254959;28;20411;-81
2023/05/16 04:07:01;;;;;;;31.88;22.92;;;14.10;99.90;;;;;;6256570;28;20083;-78
2023/05/16 04:10:04;;;;;;;35.40;24.25;;;14.10;99.90;;;;;;6255680;28;20052;-79
2023/05/16 04:13:06;;;;;;;34.03;24.95;;;14.10;99.90;;;;;;6252441;28;20530;-77
2023/05/16 04:16:09;;;;;;;28.23;21.85;;;14.10;99.90;;;;;;6254918;28;20044;-82
2023/05/16 04:19:11;;;;;;;28.45;21.75;;;14.10;99.90;;;;;;6254081;28;20474;-78
2023/05/16 04:22:12;;;;;;;31.27;22.33;;;14.10;99.90;;;;;;6255957;28;20067;-82
2023/05/16 04:25:14;;;;;;;31.02;21.33;;;14.20;99.90;;;;;;6254576;28;20041;-82
2023/05/16 04:28:16;;;;;;;27.40;20.65;;;14.20;99.90;;;;;;6252838;28;20681;-82
2023/05/16 04:31:20;;;;;;;26.02;21.05;;;14.20;99.90;;;;;;6255487;28;20052;-81
2023/05/16 04:34:26;;;;;;;26.33;21.67;;;14.20;99.90;;;;;;6254617;28;20045;-79
2023/05/16 04:37:28;;;;;;;27.20;22.45;;;14.10;99.90;;;;;;6254516;28;20041;-80
2023/05/16 04:40:30;;;;;;;26.63;17.92;;;14.10;99.90;;;;;;6263181;28;20522;-79
2023/05/16 04:43:31;;;;;;;25.65;19.45;;;14.10;99.90;;;;;;6257039;28;20191;-80
2023/05/16 04:46:34;;;;;;;26.85;19.83;;;14.10;99.90;;;;;;6257826;28;20508;-82
2023/05/16 04:49:36;;;;;;;23.98;18.98;;;14.10;99.90;;;;;;6258069;28;20408;-82
2023/05/16 04:52:38;;;;;;;23.10;18.08;;;14.00;99.90;;;;;;6258600;28;20120;-79
2023/05/16 04:55:39;;;;;;;28.13;18.80;;;14.00;99.90;;;;;;6261860;28;20199;-82
2023/05/16 04:58:41;;;;;;;23.90;17.63;;;14.00;99.90;;;;;;6257942;28;20056;-80
2023/05/16 05:01:44;;;;;;;22.77;17.10;;;14.00;99.90;;;;;;6258445;28;20053;-78
2023/05/16 05:04:46;;;;;;;23.10;17.52;;;13.90;99.90;;;;;;6257606;28;20052;-81
2023/05/16 05:07:47;;;;;;;23.63;15.73;;;13.90;99.90;;;;;;6259170;28;20286;-79
2023/05/16 05:10:49;;;;;;;24.70;17.08;;;13.90;99.90;;;;;;6262948;28;20410;-78
2023/05/16 05:13:51;;;;;;;25.10;19.08;;;13.90;99.90;;;;;;6257750;28;20492;-79
2023/05/16 05:16:54;;;;;;;24.35;16.77;;;13.90;99.90;;;;;;6257728;28;20052;-81
2023/05/16 05:19:55;;;;;;;25.20;16.17;;;13.90;99.90;;;;;;6262936;28;20649;-78
2023/05/16 05:22:57;;;;;;;24.40;18.58;;;13.90;99.90;;;;;;6266816;28;20507;-80
2023/05/16 05:25:59;;;;;;;19.90;15.88;;;13.90;99.90;;;;;;6263092;28;20046;-81
2023/05/16 05:29:01;;;;;;;26.88;19.17;;;13.80;99.90;;;;;;6261723;28;20057;-81
2023/05/16 05:32:04;;;;;;;21.73;15.60;;;13.80;99.90;;;;;;6264109;28;20223;-78
2023/05/16 05:35:07;;;;;;;27.15;17.95;;;13.70;99.90;;;;;;6262162;28;20150;-81
2023/05/16 05:38:09;;;;;;;26.67;16.75;;;13.70;99.90;;;;;;6255988;28;20059;-80
2023/05/16 05:41:10;;;;;;;21.85;16.67;;;13.70;99.90;;;;;;6256576;28;20045;-80
2023/05/16 05:44:12;;;;;;;22.02;16.40;;;13.70;99.90;;;;;;6256194;28;20053;-81
2023/05/16 05:47:15;;;;;;;21.73;16.10;;;13.70;99.90;;;;;;6263906;28;20476;-79
2023/05/16 05:50:17;;;;;;;19.95;16.10;;;13.70;99.90;;;;;;6260340;28;20056;-83
2023/05/16 05:53:19;;;;;;;22.52;14.43;;;13.80;99.90;;;;;;6258382;28;20053;-78
2023/05/16 05:56:21;;;;;;;20.50;14.73;;;13.80;99.90;;;;;;6263102;28;20051;-81
2023/05/16 05:59:22;;;;;;;21.00;14.32;;;13.80;99.90;;;;;;6264754;28;20057;-82
2023/05/16 06:02:26;;;;;;;24.30;14.88;;;13.90;99.90;;;;;;6265468;28;20048;-82
2023/05/16 06:05:28;;;;;;;22.83;13.35;;;13.90;99.90;;;;;;6265196;28;20045;-79
2023/05/16 06:08:29;;;;;;;23.05;14.60;;;13.90;99.90;;;;;;6266339;28;20064;-79
2023/05/16 06:11:31;;;;;;;15.32;11.75;;;13.90;99.90;;;;;;6270228;28;20045;-80
2023/05/16 06:14:33;;;;;;;14.20;11.30;;;13.90;99.90;;;;;;6267628;28;20123;-79
2023/05/16 06:17:36;;;;;;;18.88;12.52;;;14.00;99.90;;;;;;6265530;28;20038;-79
2023/05/16 06:20:37;;;;;;;21.52;12.68;;;14.10;99.90;;;;;;6269444;28;20048;-80
2023/05/16 06:23:39;;;;;;;18.42;13.10;;;14.20;99.90;;;;;;6265101;28;20049;-80
2023/05/16 06:26:41;;;;;;;17.90;10.77;;;14.20;99.90;;;;;;6267037;28;20057;-80
2023/05/16 06:29:42;;;;;;;15.25;9.45;;;14.30;99.90;;;;;;6264657;28;20052;-80
2023/05/16 06:32:45;;;;;;;16.13;9.65;;;14.40;99.90;;;;;;6282293;28;20399;-79
2023/05/16 06:35:47;;;;;;;10.73;8.15;;;14.40;99.90;;;;;;6268986;28;20045;-80
2023/05/16 06:38:49;;;;;;;12.30;9.63;;;14.40;99.90;;;;;;6274672;28;20094;-80
2023/05/16 06:41:52;;;;;;;8.73;7.25;;;14.40;99.90;;;;;;6272632;28;20037;-79
2023/05/16 06:44:54;;;;;;;8.07;6.13;;;14.30;99.90;;;;;;6228495;28;20103;-80
2023/05/16 06:47:57;;;;;;;10.48;6.05;;;14.20;99.90;;;;;;6280974;28;20054;-79
2023/05/16 06:50:58;;;;;;;9.27;5.63;;;14.20;99.90;;;;;;6272754;28;20104;-79
2023/05/16 06:54:00;;;;;;;9.40;6.00;;;14.20;99.90;;;;;;6266954;28;20055;-79
2023/05/16 06:57:02;;;;;;;11.43;5.30;;;14.20;99.90;;;;;;6272873;28;20049;-79
2023/05/16 07:00:05;;;;;;;9.63;6.38;;;14.20;99.90;;;;;;6272042;28;20561;-79
2023/05/16 07:03:08;;;;;;;6.38;4.55;;;14.20;99.90;;;;;;6271659;28;20064;-79
2023/05/16 07:06:10;;;;;;;7.72;5.35;;;14.10;99.90;;;;;;6271085;28;20056;-80
2023/05/16 07:09:12;;;;;;;7.10;5.07;;;14.10;99.90;;;;;;6271680;28;20406;-79
2023/05/16 07:12:14;;;;;;;5.32;3.55;;;14.10;99.90;;;;;;6273660;28;20156;-79
2023/05/16 07:16:00;;;;;;;6.20;3.88;;;14.10;99.90;;;;;;6273174;28;20521;-79
2023/05/16 07:26:07;;;;;;;1.70;1.42;;;14.20;99.90;;;;;;6265159;28;20041;-81
2023/05/16 07:29:09;;;;;;;2.05;1.67;;;14.30;99.90;;;;;;6272216;28;20507;-80
2023/05/16 07:32:10;;;;;;;2.63;1.88;;;14.40;99.90;;;;;;6269980;28;20415;-80
2023/05/16 07:35:13;;;;;;;2.75;1.90;;;14.50;99.90;;;;;;6270483;28;20040;-80
2023/05/16 07:38:15;;;;;;;1.95;1.40;;;14.60;99.90;;;;;;6271610;28;20061;-81
2023/05/16 07:41:17;;;;;;;2.97;1.42;;;14.70;99.90;;;;;;6270789;28;20049;-80
2023/05/16 07:44:18;;;;;;;2.97;1.83;;;14.80;99.90;;;;;;6270996;28;20085;-80
2023/05/16 07:47:20;;;;;;;1.83;1.63;;;14.80;99.90;;;;;;6281699;28;20071;-80
2023/05/16 07:50:23;;;;;;;1.60;1.33;;;14.80;99.90;;;;;;6274071;28;20037;-79
2023/05/16 07:53:25;;;;;;;1.85;1.75;;;14.80;99.90;;;;;;6271636;28;20045;-80
2023/05/16 07:56:26;;;;;;;2.67;1.65;;;14.90;99.90;;;;;;6272967;28;20048;-81
2023/05/16 07:59:28;;;;;;;1.27;1.17;;;14.90;99.90;;;;;;6271690;28;20600;-78
2023/05/16 08:02:30;;;;;;;1.50;1.33;;;15.00;99.90;;;;;;6268534;28;20045;-81
2023/05/16 08:05:33;;;;;;;3.08;1.60;;;15.00;99.90;;;;;;6271109;28;20052;-79
2023/05/16 08:08:35;;;;;;;1.77;1.15;;;15.00;99.90;;;;;;6268380;28;20499;-80
2023/05/16 08:11:38;;;;;;;1.40;1.30;;;15.10;99.90;;;;;;6267629;28;20634;-80
2023/05/16 08:14:40;;;;;;;1.30;1.20;;;15.20;99.90;;;;;;6269408;28;20053;-81
2023/05/16 08:17:42;;;;;;;2.63;2.05;;;15.20;99.90;;;;;;6273752;28;20404;-79
2023/05/16 08:20:45;;;;;;;2.95;1.27;;;15.20;99.90;;;;;;6274318;28;20052;-80
2023/05/16 08:23:46;;;;;;;2.40;2.15;;;15.20;99.90;;;;;;6275485;28;20044;-80
2023/05/16 08:26:48;;;;;;;4.40;1.27;;;15.10;99.90;;;;;;6272199;28;20048;-81
2023/05/16 08:29:50;;;;;;;1.20;1.10;;;15.10;99.90;;;;;;6273977;28;20044;-81
2023/05/16 08:32:51;;;;;;;1.30;1.20;;;15.00;99.90;;;;;;6273225;28;20060;-81
2023/05/16 08:35:54;;;;;;;1.70;1.60;;;14.90;99.90;;;;;;6274059;28;20480;-82
2023/05/16 08:38:56;;;;;;;4.35;1.63;;;14.80;99.90;;;;;;6274530;28;20040;-80
2023/05/16 08:41:58;;;;;;;1.70;1.60;;;14.80;99.90;;;;;;6272008;28;21468;-80
2023/05/16 08:45:00;;;;;;;0.85;0.80;;;14.70;99.90;;;;;;6270597;28;20053;-80
2023/05/16 08:48:02;;;;;;;1.52;1.42;;;14.70;99.90;;;;;;6271308;28;20053;-80
2023/05/16 08:51:09;;;;;;;6.22;2.03;;;14.70;99.90;;;;;;6270082;28;20049;-86
2023/05/16 08:54:13;;;;;;;1.53;1.20;;;14.80;99.90;;;;;;6276803;28;20053;-79
2023/05/16 08:57:16;;;;;;;1.77;1.60;;;14.80;99.90;;;;;;6288430;28;20033;-80
2023/05/16 09:00:19;;;;;;;2.67;1.98;;;14.70;99.90;;;;;;6282244;28;20053;-85
2023/05/16 09:06:32;;;;;;;4.55;1.70;;;14.80;99.90;;;;;;6442579;22;20057;-85
2023/05/16 09:09:37;;;;;;;1.67;1.40;;;14.80;99.90;;;;;;6252457;28;20056;-85
2023/05/16 09:12:40;;;;;;;2.85;1.92;;;14.80;99.90;;;;;;6262994;28;20132;-84
2023/05/16 09:15:42;;;;;;;2.20;2.03;;;14.90;99.90;;;;;;6246650;28;20042;-84
2023/05/16 09:19:08;;;;;;;2.47;2.25;;;14.90;99.90;;;;;;6228626;28;20037;-84
2023/05/16 09:22:13;;;;;;;3.92;1.88;;;14.90;99.90;;;;;;6222874;28;20094;-82
2023/05/16 09:25:17;;;;;;;3.40;2.05;;;14.90;99.90;;;;;;6227202;28;20424;-80
2023/05/16 09:28:19;;;;;;;4.57;1.85;;;14.80;99.90;;;;;;6228302;28;20046;-82
2023/05/16 09:31:21;;;;;;;4.93;1.20;;;14.80;99.90;;;;;;6234811;28;20061;-83
2023/05/16 09:34:23;;;;;;;1.35;1.25;;;14.80;99.90;;;;;;6224530;28;20397;-85
2023/05/16 09:37:26;;;;;;;2.40;1.80;;;14.80;99.90;;;;;;6234404;28;20050;-84
2023/05/16 09:40:28;;;;;;;1.95;1.50;;;14.90;99.90;;;;;;6223624;28;20532;-83
2023/05/16 09:43:30;;;;;;;1.35;1.25;;;14.80;99.90;;;;;;6229718;28;20042;-84
2023/05/16 09:46:34;;;;;;;1.85;1.75;;;14.80;99.90;;;;;;6227411;28;20072;-81
2023/05/16 09:49:37;;;;;;;1.17;1.10;;;14.70;99.90;;;;;;6226324;28;20539;-83
2023/05/16 09:52:40;;;;;;;1.85;1.50;;;14.70;99.90;;;;;;6227820;28;20045;-81
2023/05/16 09:55:42;;;;;;;1.63;1.27;;;14.70;99.90;;;;;;6217617;28;20046;-82
2023/05/16 10:01:57;;;;;;;1.85;1.73;;;14.80;99.90;;;;;;6916266;23;20061;-80
2023/05/16 10:04:58;;;;;;;1.27;1.17;;;15.00;99.90;;;;;;6203471;23;20059;-81
2023/05/16 10:08:03;;;;;;;2.85;1.50;;;15.30;99.90;;;;;;6182027;28;20058;-80
2023/05/16 10:11:06;;;;;;;1.00;0.90;;;15.60;99.90;;;;;;6184286;28;20051;-81
2023/05/16 10:14:10;;;;;;;4.43;1.00;;;16.10;99.90;;;;;;6189323;28;20105;-82
2023/05/16 10:17:15;;;;;;;9.60;1.20;;;16.60;99.90;;;;;;6192406;28;20043;-81
2023/05/16 10:20:17;;;;;;;1.20;1.10;;;17.00;99.90;;;;;;6180414;28;20056;-82
2023/05/16 10:23:21;;;;;;;1.30;1.15;;;17.50;99.90;;;;;;6176088;28;20520;-82
2023/05/16 10:26:24;;;;;;;1.58;1.10;;;17.50;99.70;;;;;;6179753;28;20093;-82
2023/05/16 10:29:28;;;;;;;3.30;1.02;;;17.50;99.30;;;;;;6179121;28;20416;-82
2023/05/16 10:32:30;;;;;;;8.25;1.70;;;17.50;99.10;;;;;;6204389;28;20059;-81
2023/05/16 10:35:32;;;;;;;1.92;1.48;;;17.50;98.60;;;;;;6199826;28;20049;-82
2023/05/16 10:38:36;;;;;;;0.85;0.85;;;17.30;98.30;;;;;;6197320;28;20053;-81
2023/05/16 10:58:25;;;;;;;1.98;0.88;;;16.40;97.90;;;;;;6195373;28;20038;-80
2023/05/16 11:01:28;;;;;;;2.55;1.73;;;16.20;97.90;;;;;;6204449;28;20050;-81
2023/05/16 11:04:46;;;;;;;2.20;0.77;;;16.00;97.90;;;;;;6204267;28;20054;-81
2023/05/16 11:08:05;;;;;;;0.60;0.60;;;15.80;97.90;;;;;;6202391;28;20047;-82
2023/05/16 11:11:42;;;;;;;1.15;0.70;;;15.80;98.00;;;;;;6198824;28;20043;-81
2023/05/16 11:14:55;;;;;;;0.82;0.82;;;15.60;97.80;;;;;;6157135;28;20138;-80
2023/05/16 11:18:26;;;;;;;0.75;0.63;;;15.60;98.00;;;;;;6203233;28;20046;-83
2023/05/16 11:22:10;;;;;;;1.58;0.75;;;15.60;97.90;;;;;;6202715;28;20109;-82
2023/05/16 11:25:12;;;;;;;2.63;1.10;;;15.60;97.80;;;;;;6130171;29;20062;-82
2023/05/16 11:28:14;;;;;;;0.70;0.70;;;15.70;97.90;;;;;;6164679;28;20052;-83
2023/05/16 11:31:56;;;;;;;1.27;0.65;;;15.70;97.80;;;;;;7239793;23;20596;-81
2023/05/16 11:35:00;;;;;;;3.58;1.35;;;15.70;97.70;;;;;;6243575;28;20512;-81
2023/05/16 11:38:01;;;;;;;3.13;1.30;;;15.60;97.60;;;;;;6244766;28;20513;-81
2023/05/16 11:41:05;;;;;;;2.70;1.10;;;15.40;97.70;;;;;;6249539;28;20060;-81
2023/05/16 11:44:06;;;;;;;0.88;0.82;;;15.40;97.90;;;;;;6242450;28;20053;-82
2023/05/16 11:47:08;;;;;;;3.60;1.48;;;15.50;97.80;;;;;;6246096;28;20140;-79
2023/05/16 11:50:13;;;;;;;2.20;1.02;;;15.50;97.90;;;;;;6238537;28;20048;-81
2023/05/16 11:53:15;;;;;;;6.45;1.10;;;15.60;97.90;;;;;;6240478;28;20049;-81
2023/05/16 11:56:17;;;;;;;1.20;0.95;;;15.80;97.50;;;;;;6243217;28;20059;-81
2023/05/16 11:59:19;;;;;;;1.42;1.10;;;15.80;97.30;;;;;;6242501;28;20128;-81
2023/05/16 12:02:21;;;;;;;1.52;1.30;;;15.80;96.90;;;;;;6243258;28;20056;-82
2023/05/16 12:05:26;;;;;;;2.60;0.70;;;15.80;96.90;;;;;;6245234;28;20045;-83
2023/05/16 12:08:29;;;;;;;1.25;0.80;;;15.80;96.90;;;;;;6248860;28;20053;-83
2023/05/16 12:11:31;;;;;;;1.23;0.90;;;16.00;96.60;;;;;;6250288;28;20062;-82
2023/05/16 12:14:33;;;;;;;2.90;1.10;;;16.00;96.20;;;;;;6249152;28;20057;-81
2023/05/16 12:17:35;;;;;;;1.45;0.98;;;16.00;95.70;;;;;;6250305;28;20056;-85
2023/05/16 12:20:39;;;;;;;1.13;1.10;;;15.80;95.80;;;;;;6263640;28;20403;-81
2023/05/16 12:23:42;;;;;;;4.07;1.27;;;15.80;95.60;;;;;;6274609;28;20064;-81
2023/05/16 12:26:43;;;;;;;3.95;1.17;;;15.70;95.80;;;;;;6263785;28;20047;-81
2023/05/16 12:29:47;;;;;;;4.45;1.40;;;15.70;95.90;;;;;;6249149;28;20045;-83
2023/05/16 12:32:53;;;;;;;1.90;1.48;;;15.60;96.10;;;;;;6240246;28;20052;-82
2023/05/16 12:35:56;;;;;;;3.03;1.60;;;15.50;96.20;;;;;;6241846;28;20056;-81
2023/05/16 12:39:01;;;;;;;5.30;1.90;;;15.40;96.10;;;;;;6243442;28;20526;-81
2023/05/16 12:42:06;;;;;;;2.88;1.33;;;15.30;96.20;;;;;;6239690;28;20073;-81
2023/05/16 12:45:15;;;;;;;4.85;2.00;;;15.20;96.30;;;;;;6241587;28;20051;-83
2023/05/16 12:48:17;;;;;;;3.13;2.00;;;15.20;96.70;;;;;;6230979;28;20076;-82
2023/05/16 12:51:20;;;;;;;5.20;1.70;;;15.30;96.70;;;;;;6233928;28;20396;-80
2023/05/16 12:54:22;;;;;;;4.97;1.88;;;15.40;97.00;;;;;;6246995;28;20054;-81
2023/05/16 12:57:24;;;;;;;3.70;1.70;;;15.60;97.00;;;;;;6239597;28;20076;-81
2023/05/16 13:00:25;;;;;;;1.80;1.52;;;15.80;96.60;;;;;;6240925;28;20044;-81
2023/05/16 13:03:27;;;;;;;5.70;1.98;;;15.80;96.10;;;;;;6241201;28;20054;-81
2023/05/16 13:06:30;;;;;;;3.22;2.08;;;15.70;96.10;;;;;;6246066;28;20128;-82
2023/05/16 13:09:32;;;;;;;6.70;2.47;;;15.70;96.20;;;;;;6247888;28;20407;-81
2023/05/16 13:12:34;;;;;;;4.45;1.80;;;15.70;96.10;;;;;;6242309;28;20060;-82
2023/05/16 13:15:36;;;;;;;4.03;1.83;;;15.80;95.90;;;;;;6217252;28;20048;-83
2023/05/16 13:18:37;;;;;;;8.70;2.35;;;16.00;95.70;;;;;;6248467;28;20052;-82
2023/05/16 13:21:40;;;;;;;6.53;2.50;;;16.00;95.30;;;;;;6242448;28;20046;-83
2023/05/16 13:24:42;;;;;;;5.25;2.83;;;16.20;95.20;;;;;;6245078;28;20431;-83
2023/05/16 13:27:45;;;;;;;6.75;2.10;;;16.20;94.80;;;;;;6249674;28;20053;-82
2023/05/16 13:30:47;;;;;;;5.57;1.95;;;16.20;94.60;;;;;;6242272;28;20797;-82
2023/05/16 13:33:48;;;;;;;7.70;2.30;;;16.20;94.30;;;;;;6247672;28;20140;-82
2023/05/16 13:36:51;;;;;;;7.10;2.50;;;16.20;93.80;;;;;;6247868;28;20041;-82
2023/05/16 13:39:54;;;;;;;9.27;2.55;;;16.20;93.40;;;;;;6250851;28;20048;-81
2023/05/16 13:42:56;;;;;;;6.72;1.80;;;16.10;93.10;;;;;;6245693;28;20492;-81
2023/05/16 13:45:58;;;;;;;12.15;2.47;;;16.10;92.80;;;;;;6242778;28;20049;-83
2023/05/16 13:48:59;;;;;;;3.63;2.22;;;16.10;92.60;;;;;;6248960;28;20045;-82
2023/05/16 13:52:03;;;;;;;14.85;3.63;;;16.10;92.30;;;;;;6244924;28;20056;-81
2023/05/16 13:55:05;;;;;;;6.30;2.95;;;16.10;92.10;;;;;;6260062;28;20068;-82
2023/05/16 13:58:07;;;;;;;7.20;2.40;;;16.10;92.00;;;;;;6276109;28;20057;-81
2023/05/16 14:01:09;;;;;;;8.15;2.30;;;16.10;91.70;;;;;;6274971;28;20052;-84
2023/05/16 14:04:11;;;;;;;8.70;2.63;;;16.10;91.40;;;;;;6263708;28;20044;-80
2023/05/16 14:07:14;;;;;;;9.77;2.78;;;16.20;91.30;;;;;;6278525;28;20403;-82
2023/05/16 14:10:15;;;;;;;11.43;2.90;;;16.20;91.00;;;;;;6279037;28;20499;-84
2023/05/16 14:13:17;;;;;;;7.55;3.15;;;16.50;90.80;;;;;;6277266;28;20053;-84
2023/05/16 14:16:19;;;;;;;3.22;1.65;;;16.60;90.60;;;;;;6280340;28;20044;-84
2023/05/16 14:19:21;;;;;;;9.98;2.08;;;16.80;90.20;;;;;;6271762;28;20042;-83
2023/05/16 14:22:24;;;;;;;6.47;2.10;;;16.80;89.60;;;;;;6276643;28;20063;-82
2023/05/16 14:25:25;;;;;;;7.22;2.60;;;16.90;88.60;;;;;;6281210;28;20049;-79
2023/05/16 14:28:27;;;;;;;9.88;1.95;;;16.70;88.10;;;;;;6280134;28;20041;-82
2023/05/16 14:31:29;;;;;;;10.27;2.90;;;16.80;88.40;;;;;;6257573;28;20037;-81
2023/05/16 14:34:31;;;;;;;6.38;1.83;;;16.80;87.30;;;;;;6236649;28;20417;-81
2023/05/16 14:37:34;;;;;;;6.97;2.72;;;17.00;87.10;;;;;;6241102;28;20053;-82
2023/05/16 14:40:36;;;;;;;3.33;1.95;;;17.20;86.20;;;;;;6235814;28;20045;-81
2023/05/16 14:43:38;;;;;;;7.15;2.70;;;17.30;85.60;;;;;;6235482;28;20041;-81
2023/05/16 14:46:39;;;;;;;5.22;2.00;;;17.40;84.50;;;;;;6237597;28;20046;-82
2023/05/16 14:49:41;;;;;;;5.65;1.92;;;17.40;83.30;;;;;;6236482;28;20436;-86
2023/05/16 14:52:44;;;;;;;4.43;1.48;;;17.30;82.80;;;;;;6234184;28;20057;-80
2023/05/16 14:55:46;;;;;;;6.05;1.88;;;17.30;82.40;;;;;;6236770;28;20053;-82
2023/05/16 14:58:48;;;;;;;7.18;2.30;;;17.20;81.70;;;;;;6228700;28;20045;-85
2023/05/16 15:01:49;;;;;;;4.90;1.48;;;17.20;81.70;;;;;;6238308;28;20041;-83
2023/05/16 15:04:54;;;;;;;11.43;2.40;;;17.10;80.80;;;;;;6245312;28;20045;-81
2023/05/16 15:07:57;;;;;;;4.63;2.03;;;17.00;80.90;;;;;;6241857;28;20422;-80
2023/05/16 15:11:06;;;;;;;11.10;4.07;;;16.90;80.10;;;;;;6250387;28;20048;-84
2023/05/16 15:14:16;;;;;;;5.38;2.45;;;16.80;80.40;;;;;;6253258;28;20049;-88
2023/05/16 15:17:20;;;;;;;7.32;2.00;;;16.90;80.60;;;;;;6248811;28;20097;-84
2023/05/16 15:20:24;;;;;;;9.05;2.85;;;16.80;80.00;;;;;;6246958;28;20054;-83
2023/05/16 15:23:28;;;;;;;4.30;1.98;;;16.70;79.90;;;;;;6253319;28;20044;-82
2023/05/16 15:26:30;;;;;;;6.85;2.65;;;16.70;79.80;;;;;;6249519;28;20045;-82
2023/05/16 15:29:32;;;;;;;3.83;1.52;;;16.80;79.70;;;;;;6251568;28;20053;-82
2023/05/16 15:32:34;;;;;;;5.80;1.55;;;16.80;79.00;;;;;;6252645;22;20057;-82
2023/05/16 15:39:03;;;;;;;7.30;3.28;;;16.80;79.00;;;;;;7215307;23;20052;-83
2023/05/16 15:42:05;;;;;;;;;;;16.80;78.70;;;;;;6315691;28;20036;-81
2023/05/16 15:45:08;;;;;;;6.50;3.55;;;16.80;78.90;;;;;;6306027;28;19927;-81
2023/05/16 15:48:09;;;;;;;9.45;3.45;;;16.80;79.10;;;;;;6294956;28;20040;-83
2023/05/16 15:51:12;;;;;;;5.65;2.17;;;16.80;79.00;;;;;;6276042;28;20441;-82
2023/05/16 15:54:15;;;;;;;8.40;2.10;;;16.90;78.90;;;;;;6272822;28;20052;-83
2023/05/16 15:57:17;;;;;;;7.47;2.33;;;16.90;78.60;;;;;;6269494;28;20059;-83
2023/05/16 16:00:20;;;;;;;5.88;2.13;;;16.80;78.40;;;;;;6277585;28;20057;-82
2023/05/16 16:03:22;;;;;;;7.03;2.13;;;16.90;78.60;;;;;;6272414;28;20067;-83
2023/05/16 16:06:23;;;;;;;16.52;15.10;;;17.00;78.30;;;;;;6276195;28;20534;-82
2023/05/16 16:09:27;;;;;;;9.15;5.18;;;17.00;77.90;;;;;;6270924;28;20047;-83
2023/05/16 16:12:29;;;;;;;6.93;2.10;;;17.10;78.10;;;;;;6273016;28;20494;-83
2023/05/16 16:15:32;;;;;;;3.08;1.70;;;17.20;78.00;;;;;;6269858;28;20051;-82
2023/05/16 16:18:34;;;;;;;7.93;1.77;;;17.30;78.00;;;;;;6271148;28;20128;-84